createdAt,value
2022-08-11T00:01:21.413Z,100775.75
2022-08-11T00:03:51.183Z,100692.44
2022-08-11T00:06:27.312Z,100767.91
2022-08-11T00:09:01.277Z,100760.00
2022-08-11T00:11:49.373Z,100608.25
2022-08-11T00:14:23.222Z,100647.75
2022-08-11T00:17:08.515Z,100754.72
2022-08-11T00:20:13.769Z,100719.72
2022-08-11T00:22:29.922Z,100757.38
2022-08-11T00:25:02.550Z,100660.00
2022-08-11T00:27:36.613Z,100705.66
2022-08-11T00:30:05.692Z,100746.91
2022-08-11T00:32:32.559Z,100751.28
2022-08-11T00:35:53.752Z,100703.91
2022-08-11T00:37:49.999Z,100752.19
2022-08-11T00:40:18.962Z,100749.53
2022-08-11T00:43:04.943Z,100626.72
2022-08-11T00:46:05.164Z,100744.28
2022-08-11T00:48:47.740Z,100692.53
2022-08-11T00:52:03.944Z,100746.94
2022-08-11T00:54:41.125Z,100743.41
2022-08-11T00:57:36.942Z,100749.59
2022-08-11T01:00:25.597Z,100746.97
2022-08-11T01:03:09.921Z,100751.38
2022-08-11T01:06:08.076Z,100735.56
2022-08-11T01:09:22.353Z,100754.00
2022-08-11T01:12:14.443Z,100748.72
2022-08-11T01:15:00.273Z,100749.66
2022-08-11T01:17:26.883Z,100747.88
2022-08-11T01:20:45.417Z,100747.00
2022-08-11T01:23:20.329Z,100744.38
2022-08-11T01:26:15.047Z,100739.13
2022-08-11T01:28:54.094Z,100735.59
2022-08-11T01:31:49.978Z,100740.94
2022-08-11T01:34:41.746Z,100740.94
2022-08-11T01:37:36.338Z,100739.16
2022-08-11T01:40:11.869Z,100731.25
2022-08-11T01:43:23.813Z,100729.47
2022-08-11T01:46:25.410Z,100729.47
2022-08-11T01:50:08.324Z,100710.16
2022-08-11T01:52:19.948Z,100730.41
2022-08-11T01:55:14.997Z,100733.03
2022-08-11T01:57:53.638Z,100646.13
2022-08-11T02:00:25.026Z,100507.53
2022-08-11T02:03:17.071Z,100730.38
2022-08-11T02:05:43.773Z,100695.28
2022-08-11T02:08:33.602Z,100724.25
2022-08-11T02:11:31.574Z,100721.59
2022-08-11T02:14:17.381Z,100720.72
2022-08-11T02:16:55.960Z,100718.06
2022-08-11T02:20:14.507Z,100720.72
2022-08-11T02:24:04.178Z,100718.06
2022-08-11T02:26:26.881Z,100557.50
2022-08-11T02:29:15.288Z,100717.19
2022-08-11T02:32:28.792Z,100717.19
2022-08-11T02:35:42.922Z,100713.66
2022-08-11T02:38:25.052Z,100718.94
2022-08-11T02:41:35.446Z,100715.41
2022-08-11T02:44:16.920Z,100715.47
2022-08-11T02:47:02.099Z,100704.88
2022-08-11T02:50:02.652Z,100701.38
2022-08-11T02:52:47.768Z,100701.38
2022-08-11T02:55:56.425Z,100697.88
2022-08-11T02:58:39.261Z,100700.50
2022-08-11T03:01:24.170Z,100690.00
2022-08-11T03:04:01.256Z,100577.69
2022-08-11T03:06:41.417Z,100710.22
2022-08-11T03:09:19.647Z,100708.44
2022-08-11T03:12:16.622Z,100717.25
2022-08-11T03:15:01.924Z,100707.59
2022-08-11T03:18:03.994Z,100665.47
2022-08-11T03:20:44.924Z,100703.19
2022-08-11T03:23:19.677Z,100632.16
2022-08-11T03:26:07.793Z,100717.25
2022-08-11T03:28:42.085Z,100601.41
2022-08-11T03:31:27.654Z,100707.63
2022-08-11T03:34:14.191Z,100706.75
2022-08-11T03:37:53.427Z,100701.47
2022-08-11T03:40:43.051Z,100709.38
2022-08-11T03:43:45.766Z,100712.00
2022-08-11T03:46:27.683Z,100716.41
2022-08-11T03:49:10.278Z,100626.88
2022-08-11T03:51:52.316Z,100661.97
2022-08-11T03:54:28.422Z,100714.66
2022-08-11T03:57:22.473Z,100712.03
2022-08-11T04:00:11.255Z,100712.91
2022-08-11T04:03:15.743Z,100721.69
2022-08-11T04:06:11.775Z,100718.19
2022-08-11T04:09:16.962Z,100715.53
2022-08-11T04:12:14.778Z,100719.06
2022-08-11T04:15:15.781Z,100711.16
2022-08-11T04:18:00.922Z,100719.06
2022-08-11T04:20:30.634Z,100719.06
2022-08-11T04:24:36.133Z,100719.94
2022-08-11T04:26:34.483Z,100717.28
2022-08-11T04:30:01.017Z,100677.78
2022-08-11T04:32:48.959Z,100722.59
2022-08-11T04:35:35.190Z,100667.25
2022-08-11T04:38:10.915Z,100726.94
2022-08-11T04:41:01.085Z,100726.94
2022-08-11T04:44:05.797Z,100734.88
2022-08-11T04:46:32.573Z,100736.59
2022-08-11T04:49:43.981Z,100741.88
2022-08-11T04:52:53.837Z,100732.19
2022-08-11T04:55:57.835Z,100697.09
2022-08-11T04:59:08.242Z,100730.44
2022-08-11T05:01:44.182Z,100726.94
2022-08-11T05:04:53.922Z,100737.47
2022-08-11T05:07:41.631Z,100733.06
2022-08-11T05:10:20.369Z,100733.97
2022-08-11T05:13:18.453Z,100736.59
2022-08-11T05:16:14.926Z,100748.88
2022-08-11T05:19:10.958Z,100736.56
2022-08-11T05:22:01.376Z,100745.31
2022-08-11T05:24:56.358Z,100691.81
2022-08-11T05:27:55.707Z,100685.63
2022-08-11T05:30:46.851Z,100615.44
2022-08-11T05:33:42.769Z,100752.34
2022-08-11T05:36:23.976Z,100747.00
2022-08-11T05:39:16.463Z,100689.06
2022-08-11T05:42:01.938Z,100655.69
2022-08-11T05:44:47.716Z,100757.47
2022-08-11T05:47:44.252Z,100747.78
2022-08-11T05:50:33.110Z,100750.38
2022-08-11T05:53:18.691Z,100751.22
2022-08-11T05:56:04.458Z,100753.94
2022-08-11T05:58:41.306Z,100742.38
2022-08-11T06:01:10.805Z,100748.47
2022-08-11T06:03:58.519Z,100705.41
2022-08-11T06:06:29.337Z,100652.72
2022-08-11T06:08:57.723Z,100664.03
2022-08-11T06:11:42.851Z,100621.91
2022-08-11T06:14:12.832Z,100754.22
2022-08-11T06:16:43.744Z,100748.03
2022-08-11T06:19:10.619Z,100657.75
2022-08-11T06:21:38.433Z,100717.38
2022-08-11T06:24:12.787Z,100744.50
2022-08-11T06:27:08.993Z,100731.28
2022-08-11T06:29:47.962Z,100732.97
2022-08-11T06:32:28.172Z,100740.88
2022-08-11T06:35:13.822Z,100739.06
2022-08-11T06:37:42.353Z,100743.44
2022-08-11T06:40:17.779Z,100746.03
2022-08-11T06:42:58.793Z,100739.81
2022-08-11T06:45:48.322Z,100712.53
2022-08-11T06:48:22.044Z,100735.19
2022-08-11T06:51:17.353Z,100741.41
2022-08-11T06:53:56.339Z,100731.56
2022-08-11T06:57:28.478Z,100698.28
2022-08-11T07:00:09.962Z,100693.72
2022-08-11T07:02:42.839Z,100734.97
2022-08-11T07:05:48.474Z,100717.31
2022-08-11T07:08:44.837Z,100625.34
2022-08-11T07:12:06.006Z,100709.31
2022-08-11T07:15:01.104Z,100608.59
2022-08-11T07:17:32.094Z,100683.69
2022-08-11T07:20:18.923Z,100725.63
2022-08-11T07:23:09.866Z,100717.50
2022-08-11T07:26:00.775Z,100686.06
2022-08-11T07:28:47.903Z,100669.31
2022-08-11T07:31:21.480Z,100727.91
2022-08-11T07:34:07.618Z,100727.84
2022-08-11T07:36:45.057Z,100724.28
2022-08-11T07:39:27.551Z,100648.06
2022-08-11T07:41:57.268Z,100727.63
2022-08-11T07:44:34.993Z,100731.19
2022-08-11T07:47:21.292Z,100608.59
2022-08-11T07:50:11.124Z,100720.56
2022-08-11T07:52:40.656Z,100720.50
2022-08-11T07:55:17.703Z,100661.00
2022-08-11T07:58:16.785Z,100692.31
2022-08-11T08:01:21.553Z,100706.91
2022-08-11T08:04:12.747Z,100708.44
2022-08-11T08:07:00.491Z,100651.38
2022-08-11T08:09:46.250Z,100711.44
2022-08-11T08:12:31.949Z,100593.88
2022-08-11T08:15:17.742Z,100660.16
2022-08-11T08:18:09.997Z,100696.88
2022-08-11T08:20:50.106Z,100694.97
2022-08-11T08:23:33.343Z,100701.91
2022-08-11T08:26:04.465Z,100603.88
2022-08-11T08:28:32.951Z,100706.34
2022-08-11T08:31:02.484Z,100710.69
2022-08-11T08:33:31.118Z,100588.88
2022-08-11T08:36:13.062Z,100695.25
2022-08-11T08:38:51.078Z,100684.53
2022-08-11T08:41:23.403Z,100639.00
2022-08-11T08:43:52.144Z,100683.03
2022-08-11T08:46:22.297Z,100683.72
2022-08-11T08:48:50.436Z,100664.38
2022-08-11T08:52:01.516Z,100568.13
2022-08-11T08:54:37.739Z,100563.78
2022-08-11T08:57:08.283Z,100681.53
2022-08-11T08:59:48.447Z,100608.91
2022-08-11T09:02:17.766Z,100671.66
2022-08-11T09:04:46.022Z,100669.91
2022-08-11T09:07:15.507Z,100632.28
2022-08-11T09:09:48.559Z,100570.78
2022-08-11T09:12:36.539Z,100659.88
2022-08-11T09:15:11.796Z,100577.41
2022-08-11T09:17:41.116Z,100628.44
2022-08-11T09:20:34.217Z,100639.06
2022-08-11T09:24:07.992Z,100644.78
2022-08-11T09:26:31.017Z,100577.84
2022-08-11T09:28:58.552Z,100635.66
2022-08-11T09:31:26.799Z,100552.41
2022-08-11T09:33:57.317Z,100554.19
2022-08-11T09:36:43.026Z,100636.06
2022-08-11T09:39:34.626Z,100471.47
2022-08-11T09:42:07.074Z,100570.94
2022-08-11T09:44:50.627Z,100606.97
2022-08-11T09:47:29.501Z,100635.75
2022-08-11T09:50:00.596Z,100638.72
2022-08-11T09:52:33.688Z,100565.56
2022-08-11T09:55:01.380Z,100636.06
2022-08-11T09:57:49.219Z,100489.91
2022-08-11T10:00:18.837Z,100556.81
2022-08-11T10:02:47.612Z,100613.91
2022-08-11T10:05:33.968Z,100626.94
2022-08-11T10:08:04.044Z,100628.34
2022-08-11T10:10:36.563Z,100625.97
2022-08-11T10:14:04.825Z,100598.50
2022-08-11T10:16:16.005Z,100580.41
2022-08-11T10:18:53.823Z,100598.81
2022-08-11T10:21:28.416Z,100615.53
2022-08-11T10:24:18.207Z,100600.00
2022-08-11T10:26:55.834Z,100602.47
2022-08-11T10:29:52.106Z,100603.53
2022-08-11T10:32:57.931Z,100600.34
2022-08-11T10:35:30.288Z,100595.50
2022-08-11T10:38:07.277Z,100593.69
2022-08-11T10:40:39.085Z,100510.25
2022-08-11T10:43:08.226Z,100584.97
2022-08-11T10:46:00.080Z,100585.50
2022-08-11T10:48:29.023Z,100409.47
2022-08-11T10:51:14.893Z,100536.41
2022-08-11T10:54:12.382Z,100565.88
2022-08-11T10:56:58.747Z,100584.22
2022-08-11T10:59:28.045Z,100489.66
2022-08-11T11:01:59.064Z,100499.00
2022-08-11T11:05:01.929Z,100564.50
2022-08-11T11:07:44.443Z,100481.97
2022-08-11T11:10:11.492Z,100507.75
2022-08-11T11:13:06.455Z,100556.09
2022-08-11T11:15:54.845Z,100542.19
2022-08-11T11:18:28.831Z,100551.91
2022-08-11T11:21:01.582Z,100539.13
2022-08-11T11:23:47.330Z,100502.44
2022-08-11T11:26:41.306Z,100484.72
2022-08-11T11:29:33.270Z,100514.59
2022-08-11T11:32:20.569Z,100524.44
2022-08-11T11:35:07.105Z,100529.38
2022-08-11T11:37:37.106Z,100523.75
2022-08-11T11:40:15.464Z,100523.31
2022-08-11T11:42:44.933Z,100521.28
2022-08-11T11:45:22.726Z,100485.19
2022-08-11T11:47:54.022Z,100517.13
2022-08-11T11:50:34.752Z,100407.09
2022-08-11T11:53:07.354Z,100421.94
2022-08-11T11:55:37.176Z,100467.97
2022-08-11T11:58:23.626Z,100417.91
2022-08-11T12:01:10.487Z,100497.81
2022-08-11T12:03:44.864Z,100510.97
2022-08-11T12:06:14.429Z,100464.41
2022-08-11T12:08:42.169Z,100380.59
2022-08-11T12:11:31.341Z,100320.97
2022-08-11T12:14:04.696Z,100498.81
2022-08-11T12:16:40.591Z,100485.06
2022-08-11T12:19:12.397Z,100471.94
2022-08-11T12:22:00.935Z,100498.75
2022-08-11T12:24:49.987Z,100504.34
2022-08-11T12:27:24.174Z,100336.34
2022-08-11T12:30:01.171Z,100465.88
2022-08-11T12:32:32.783Z,100463.59
2022-08-11T12:35:05.592Z,100426.53
2022-08-11T12:37:38.433Z,100419.75
2022-08-11T12:40:49.926Z,100480.16
2022-08-11T12:43:38.049Z,100457.59
2022-08-11T12:46:31.892Z,100481.41
2022-08-11T12:49:18.533Z,100430.91
2022-08-11T12:52:14.452Z,100323.53
2022-08-11T12:55:12.557Z,100475.88
2022-08-11T12:58:03.785Z,100463.13
2022-08-11T13:00:51.172Z,100383.13
2022-08-11T13:03:40.070Z,100298.78
2022-08-11T13:06:07.769Z,100457.53
2022-08-11T13:08:38.578Z,100429.09
2022-08-11T13:11:56.801Z,100414.78
2022-08-11T13:14:15.510Z,100353.38
2022-08-11T13:17:03.626Z,100455.31
2022-08-11T13:19:31.546Z,100460.88
2022-08-11T13:22:02.387Z,100261.72
2022-08-11T13:24:29.573Z,100341.25
2022-08-11T13:27:02.219Z,100453.19
2022-08-11T13:29:31.670Z,100299.19
2022-08-11T13:32:00.049Z,100257.88
2022-08-11T13:34:33.011Z,100405.06
2022-08-11T13:37:05.537Z,100445.97
2022-08-11T13:39:34.201Z,100326.09
2022-08-11T13:42:02.479Z,100303.44
2022-08-11T13:44:31.396Z,100433.81
2022-08-11T13:47:01.639Z,100444.69
2022-08-11T13:49:29.437Z,100207.25
2022-08-11T13:51:56.840Z,100435.34
2022-08-11T13:54:43.060Z,100371.97
2022-08-11T13:57:13.803Z,100246.81
2022-08-11T14:00:15.835Z,100342.50
2022-08-11T14:02:54.342Z,100359.25
2022-08-11T14:05:27.982Z,100405.56
2022-08-11T14:08:03.987Z,100424.91
2022-08-11T14:10:34.465Z,100305.56
2022-08-11T14:13:21.768Z,100310.63
2022-08-11T14:15:49.968Z,100290.22
2022-08-11T14:18:16.695Z,100412.09
2022-08-11T14:21:02.547Z,100269.88
2022-08-11T14:23:38.960Z,100415.13
2022-08-11T14:26:27.027Z,100411.31
2022-08-11T14:28:57.001Z,100411.34
2022-08-11T14:31:25.616Z,100303.69
2022-08-11T14:34:01.113Z,100412.41
2022-08-11T14:36:37.352Z,100375.31
2022-08-11T14:39:17.087Z,100219.72
2022-08-11T14:42:11.155Z,100327.28
2022-08-11T14:45:03.726Z,100329.59
2022-08-11T14:47:35.771Z,100262.72
2022-08-11T14:50:11.587Z,100344.31
2022-08-11T14:52:44.564Z,100289.72
2022-08-11T14:55:31.302Z,100402.69
2022-08-11T14:57:58.630Z,100363.06
2022-08-11T15:00:26.509Z,100293.72
2022-08-11T15:03:14.571Z,100408.34
2022-08-11T15:05:55.773Z,100406.47
2022-08-11T15:08:52.135Z,100328.22
2022-08-11T15:11:39.480Z,100400.16
2022-08-11T15:14:10.463Z,100215.69
2022-08-11T15:16:59.447Z,100405.66
2022-08-11T15:19:40.520Z,100303.28
2022-08-11T15:22:28.989Z,100279.78
2022-08-11T15:24:59.861Z,100411.00
2022-08-11T15:27:48.693Z,100235.72
2022-08-11T15:30:37.285Z,100327.31
2022-08-11T15:33:27.323Z,100406.31
2022-08-11T15:36:16.182Z,100195.25
2022-08-11T15:39:19.493Z,100399.00
2022-08-11T15:42:19.493Z,100397.47
2022-08-11T15:45:10.355Z,100290.75
2022-08-11T15:47:58.419Z,100368.38
2022-08-11T15:50:33.676Z,100357.00
2022-08-11T15:53:04.221Z,100269.38
2022-08-11T15:55:33.237Z,100387.69
2022-08-11T15:58:22.173Z,100368.53
2022-08-11T16:01:11.359Z,100249.50
2022-08-11T16:04:13.288Z,100389.22
2022-08-11T16:06:49.453Z,100293.63
2022-08-11T16:09:52.042Z,100393.41
2022-08-11T16:12:23.653Z,100213.91
2022-08-11T16:15:15.215Z,100256.50
2022-08-11T16:17:57.011Z,100128.47
2022-08-11T16:20:26.619Z,100238.47
2022-08-11T16:23:02.463Z,100220.00
2022-08-11T16:27:03.405Z,100290.75
2022-08-11T16:28:20.804Z,100362.50
2022-08-11T16:30:48.487Z,100238.25
2022-08-11T16:33:48.703Z,100250.75
2022-08-11T16:36:24.891Z,100379.09
2022-08-11T16:38:53.200Z,100122.09
2022-08-11T16:41:42.246Z,100381.25
2022-08-11T16:44:37.094Z,100302.78
2022-08-11T16:47:10.935Z,100341.16
2022-08-11T16:49:53.300Z,100336.13
2022-08-11T16:52:23.380Z,100258.28
2022-08-11T16:54:52.623Z,100337.53
2022-08-11T16:57:43.874Z,100377.78
2022-08-11T17:00:16.464Z,100374.72
2022-08-11T17:03:15.562Z,100227.47
2022-08-11T17:06:05.482Z,100048.97
2022-08-11T17:08:58.488Z,100354.53
2022-08-11T17:11:53.108Z,100389.81
2022-08-11T17:14:36.229Z,100407.41
2022-08-11T17:17:08.935Z,100351.59
2022-08-11T17:20:41.298Z,100250.91
2022-08-11T17:22:54.752Z,100165.50
2022-08-11T17:25:24.937Z,100312.13
2022-08-11T17:27:52.655Z,100270.66
2022-08-11T17:30:20.322Z,100259.75
2022-08-11T17:33:08.281Z,100291.41
2022-08-11T17:35:44.768Z,100375.50
2022-08-11T17:38:16.627Z,100274.78
2022-08-11T17:41:08.441Z,100241.22
2022-08-11T17:43:54.642Z,100405.38
2022-08-11T17:46:40.433Z,100409.00
2022-08-11T17:49:09.012Z,100453.09
2022-08-11T17:51:54.846Z,100456.00
2022-08-11T17:54:45.671Z,100290.69
2022-08-11T17:57:36.115Z,100460.69
2022-08-11T18:00:09.635Z,100236.69
2022-08-11T18:03:00.099Z,100298.69
2022-08-11T18:05:35.093Z,100287.47
2022-08-11T18:08:25.992Z,100278.91
2022-08-11T18:11:13.233Z,100336.88
2022-08-11T18:14:10.308Z,100337.75
2022-08-11T18:16:55.638Z,99234.25
2022-08-11T18:19:40.992Z,100420.06
2022-08-11T18:22:40.786Z,100237.91
2022-08-11T18:25:31.628Z,100100.28
2022-08-11T18:28:18.492Z,100383.81
2022-08-11T18:31:09.645Z,100406.84
2022-08-11T18:34:10.918Z,100412.84
2022-08-11T18:37:27.236Z,100474.81
2022-08-11T18:40:25.163Z,100407.88
2022-08-11T18:43:15.913Z,100338.84
2022-08-11T18:46:08.317Z,100361.72
2022-08-11T18:48:58.197Z,100375.72
2022-08-11T18:51:43.890Z,100432.34
2022-08-11T18:54:30.359Z,100320.75
2022-08-11T18:57:20.368Z,100284.25
2022-08-11T19:00:06.208Z,100406.56
2022-08-11T19:02:56.111Z,100320.00
2022-08-11T19:06:05.234Z,100504.63
2022-08-11T19:09:00.706Z,100392.78
2022-08-11T19:11:47.816Z,100365.75
2022-08-11T19:14:36.218Z,100311.06
2022-08-11T19:17:43.498Z,100488.13
2022-08-11T19:20:36.658Z,100503.19
2022-08-11T19:23:27.500Z,100486.50
2022-08-11T19:26:13.288Z,100516.53
2022-08-11T19:29:01.628Z,100235.03
2022-08-11T19:31:52.447Z,100491.94
2022-08-11T19:34:40.342Z,100487.56
2022-08-11T19:37:29.162Z,100484.19
2022-08-11T19:40:20.801Z,100480.72
2022-08-11T19:43:16.846Z,100397.72
2022-08-11T19:46:15.272Z,100375.91
2022-08-11T19:49:00.538Z,100475.53
2022-08-11T19:51:47.538Z,100485.31
2022-08-11T19:54:42.290Z,100417.97
2022-08-11T19:57:32.529Z,100486.28
2022-08-11T20:00:30.032Z,100335.22
2022-08-11T20:03:19.523Z,100357.06
2022-08-11T20:06:06.512Z,100475.22
2022-08-11T20:08:58.515Z,100457.81
2022-08-11T20:11:48.754Z,100327.56
2022-08-11T20:14:36.045Z,100359.91
2022-08-11T20:17:22.540Z,100395.84
2022-08-11T20:20:09.796Z,100480.75
2022-08-11T20:22:55.560Z,100442.34
2022-08-11T20:25:42.492Z,100279.75
2022-08-11T20:28:28.493Z,100476.56
2022-08-11T20:31:17.229Z,100479.25
2022-08-11T20:34:03.078Z,100428.59
2022-08-11T20:36:52.539Z,100369.19
2022-08-11T20:39:43.628Z,100482.03
2022-08-11T20:42:33.095Z,100483.00
2022-08-11T20:45:23.970Z,100478.66
2022-08-11T20:48:15.002Z,100481.38
2022-08-11T20:51:07.557Z,100485.81
2022-08-11T20:53:58.456Z,100482.34
2022-08-11T20:56:46.562Z,100496.47
2022-08-11T20:59:38.438Z,100490.34
2022-08-11T21:02:35.544Z,100417.78
2022-08-11T21:06:10.226Z,100445.00
2022-08-11T21:08:31.035Z,100437.09
2022-08-11T21:11:27.740Z,100446.78
2022-08-11T21:14:14.219Z,100503.75
2022-08-11T21:17:00.576Z,100502.03
2022-08-11T21:19:59.984Z,100446.06
2022-08-11T21:23:05.504Z,100506.50
2022-08-11T21:26:04.253Z,100511.81
2022-08-11T21:28:50.500Z,100510.13
2022-08-11T21:31:39.200Z,100495.34
2022-08-11T21:34:25.108Z,100510.16
2022-08-11T21:37:11.466Z,100443.66
2022-08-11T21:39:58.472Z,100522.47
2022-08-11T21:42:47.037Z,100483.97
2022-08-11T21:45:32.760Z,100525.16
2022-08-11T21:48:19.043Z,100516.44
2022-08-11T21:51:04.471Z,100526.06
2022-08-11T21:53:50.744Z,100462.19
2022-08-11T21:56:36.431Z,100462.19
2022-08-11T21:59:21.727Z,100525.22
2022-08-11T22:02:12.863Z,100525.22
2022-08-11T22:04:59.343Z,100528.78
2022-08-11T22:07:45.215Z,100524.38
2022-08-11T22:10:40.552Z,100464.00
2022-08-11T22:13:27.532Z,100524.47
2022-08-11T22:16:13.291Z,100522.78
2022-08-11T22:18:58.905Z,100464.97
2022-08-11T22:22:02.570Z,100521.03
2022-08-11T22:24:51.325Z,100517.56
2022-08-11T22:27:37.132Z,100451.88
2022-08-11T22:30:26.142Z,100524.59
2022-08-11T22:33:12.018Z,100515.78
2022-08-11T22:36:00.343Z,100507.00
2022-08-11T22:38:50.013Z,100505.22
2022-08-11T22:41:35.365Z,100506.06
2022-08-11T22:44:21.587Z,100399.19
2022-08-11T22:47:08.213Z,100501.66
2022-08-11T22:49:58.522Z,100455.25
2022-08-11T22:52:47.117Z,100466.63
2022-08-11T22:55:33.861Z,100506.09
2022-08-11T22:58:23.199Z,100505.19
2022-08-11T23:01:17.450Z,100460.50
2022-08-11T23:04:05.399Z,100504.34
2022-08-11T23:06:53.291Z,100501.72
2022-08-11T23:09:39.011Z,100495.59
2022-08-11T23:12:24.765Z,100405.38
2022-08-11T23:15:10.714Z,100502.56
2022-08-11T23:18:01.991Z,100450.84
2022-08-11T23:20:56.626Z,100415.81
2022-08-11T23:23:44.500Z,100377.28
2022-08-11T23:26:30.039Z,100490.25
2022-08-11T23:29:16.402Z,100427.16
2022-08-11T23:32:04.882Z,100449.91
2022-08-11T23:35:03.790Z,100461.28
2022-08-11T23:37:50.474Z,100475.25
2022-08-11T23:40:39.715Z,100473.44
2022-08-11T23:43:26.043Z,100462.13
2022-08-11T23:46:11.313Z,100468.19
2022-08-11T23:49:00.352Z,100469.97
2022-08-11T23:51:46.928Z,100469.09
2022-08-11T23:54:37.303Z,100403.44
2022-08-11T23:57:24.013Z,100358.81
